Time;durP1;ratioP1;P1;durP2;ratioP2;P2;SDS_P1;SDS_P2;PMS_P1;PMS_P2;Temp;Humidity;BMP_temperature;BMP_pressure;BME280_temperature;BME280_humidity;BME280_pressure;Samples;Min_cycle;Max_cycle;Signal;HPM_P1;HPM_P2
2022/07/01 00:02:03;;;;;;;;;;;;;;;21.71;72.45;101044.75;1709674;82;25798;-55
2022/07/01 00:04:29;;;;;;;;;;;;;;;21.63;72.56;101044.92;1706004;82;27532;-55
2022/07/01 00:06:59;;;;;;;;;;;;;;;21.60;72.30;101048.06;1709235;83;25895;-55
2022/07/01 00:09:26;;;;;;;;;;;;;;;21.53;72.41;101049.35;1698268;83;25691;-55
2022/07/01 00:11:53;;;;;;;;;;;;;;;21.48;72.51;101047.22;1712904;83;25707;-55
2022/07/01 00:14:22;;;;;;;;;;;;;;;21.49;72.51;101050.28;1707134;83;25743;-55
2022/07/01 00:16:50;;;;;;;;;;;;;;;21.54;72.75;101050.54;1706794;83;27225;-55
2022/07/01 00:19:17;;;;;;;;;;;;;;;21.55;73.87;101061.81;1708125;83;25868;-55
2022/07/01 00:21:43;;;;;;;;;;;;;;;21.50;73.96;101060.19;1699247;83;25537;-55
2022/07/01 00:24:11;;;;;;;;;;;;;;;21.47;73.47;101057.02;1708231;83;26579;-55
2022/07/01 00:26:37;;;;;;;;;;;;;;;21.49;73.22;101061.77;1708793;83;25455;-55
2022/07/01 00:29:04;;;;;;;;;;;;;;;21.53;73.09;101047.98;1698039;82;27490;-55
2022/07/01 00:31:31;;;;;;;;;;;;;;;21.55;72.74;101048.63;1706518;82;25869;-55
2022/07/01 00:33:57;;;;;;;;;;;;;;;21.56;73.00;101047.59;1702985;83;25788;-55
2022/07/01 00:36:24;;;;;;;;;;;;;;;21.50;72.77;101054.72;1704393;82;25805;-55
2022/07/01 00:38:50;;;;;;;;;;;;;;;21.51;72.62;101052.84;1708735;82;25660;-55
2022/07/01 00:41:17;;;;;;;;;;;;;;;21.52;72.49;101045.78;1702997;83;27527;-56
2022/07/01 00:43:43;;;;;;;;;;;;;;;21.51;72.63;101050.94;1705562;83;25756;-55
2022/07/01 00:46:10;;;;;;;;;;;;;;;21.49;72.39;101046.72;1714403;82;25732;-55
2022/07/01 00:48:38;;;;;;;;;;;;;;;21.45;73.15;101048.15;1736721;81;25843;-55
2022/07/01 00:51:05;;;;;;;;;;;;;;;21.41;72.64;101054.55;1747972;80;27349;-56
2022/07/01 00:53:32;;;;;;;;;;;;;;;21.44;72.87;101054.16;1708932;82;27510;-55
2022/07/01 00:55:58;;;;;;;;;;;;;;;21.47;72.75;101057.02;1710701;82;25717;-56
2022/07/01 00:58:28;;;;;;;;;;;;;;;21.48;72.71;101052.70;1741305;81;25713;-56
2022/07/01 01:00:56;;;;;;;;;;;;;;;21.52;72.73;101052.62;1719602;82;25809;-55
2022/07/01 01:03:23;;;;;;;;;;;;;;;21.56;72.71;101051.16;1745999;80;25697;-55
2022/07/01 01:05:50;;;;;;;;;;;;;;;21.63;72.20;101057.25;1723640;81;27447;-56
2022/07/01 01:08:17;;;;;;;;;;;;;;;21.67;72.16;101059.88;1720775;81;25798;-55
2022/07/01 01:10:44;;;;;;;;;;;;;;;21.70;71.83;101060.85;1727352;81;25708;-53
2022/07/01 01:13:12;;;;;;;;;;;;;;;21.73;71.88;101063.20;1733726;82;25856;-55
2022/07/01 01:15:39;;;;;;;;;;;;;;;21.76;72.19;101067.41;1721531;81;25879;-55
2022/07/01 01:18:06;;;;;;;;;;;;;;;21.76;72.57;101066.05;1730132;81;27481;-54
2022/07/01 01:20:36;;;;;;;;;;;;;;;21.73;71.84;101064.03;1718473;81;25796;-55
2022/07/01 01:23:06;;;;;;;;;;;;;;;21.75;71.95;101061.08;1713909;81;25816;-55
2022/07/01 01:25:33;;;;;;;;;;;;;;;21.74;71.67;101067.59;1724997;81;25847;-55
2022/07/01 01:28:04;;;;;;;;;;;;;;;21.73;71.73;101066.77;1722645;82;25723;-56
2022/07/01 01:30:30;;;;;;;;;;;;;;;21.73;71.88;101068.67;1717128;82;28449;-55
2022/07/01 01:32:57;;;;;;;;;;;;;;;21.74;71.67;101066.23;1719426;82;25805;-54
2022/07/01 01:35:23;;;;;;;;;;;;;;;21.76;71.52;101061.94;1725223;81;25437;-56
2022/07/01 01:37:51;;;;;;;;;;;;;;;21.78;71.57;101064.79;1726624;82;26488;-56
2022/07/01 01:40:18;;;;;;;;;;;;;;;21.78;71.27;101063.95;1736239;82;25811;-56
2022/07/01 01:42:46;;;;;;;;;;;;;;;21.78;71.42;101065.33;1714932;82;27431;-55
2022/07/01 01:45:13;;;;;;;;;;;;;;;21.77;71.57;101063.09;1719004;82;25718;-55
2022/07/01 01:47:39;;;;;;;;;;;;;;;21.73;71.61;101065.94;1736605;81;26523;-55
2022/07/01 01:50:08;;;;;;;;;;;;;;;21.63;71.62;101064.92;1728474;81;25789;-55
2022/07/01 01:52:35;;;;;;;;;;;;;;;21.62;71.65;101069.23;1717638;81;25851;-56
2022/07/01 01:55:01;;;;;;;;;;;;;;;21.60;71.66;101063.98;1734341;81;29669;-56
2022/07/01 01:57:28;;;;;;;;;;;;;;;21.58;71.72;101067.44;1730085;81;25835;-55
2022/07/01 01:59:55;;;;;;;;;;;;;;;21.54;71.49;101071.07;1738735;81;25743;-55
2022/07/01 02:02:21;;;;;;;;;;;;;;;21.53;71.83;101075.36;1730876;80;25839;-54
2022/07/01 02:04:50;;;;;;;;;;;;;;;21.52;71.68;101079.13;1744022;81;25887;-55
2022/07/01 02:07:16;;;;;;;;;;;;;;;21.51;71.81;101083.78;1742273;80;28301;-55
2022/07/01 02:09:43;;;;;;;;;;;;;;;21.52;72.00;101087.34;1734073;81;25694;-55
2022/07/01 02:12:10;;;;;;;;;;;;;;;21.48;71.61;101086.91;1730422;81;25805;-56
2022/07/01 02:14:37;;;;;;;;;;;;;;;21.45;71.68;101077.75;1732117;81;25858;-55
2022/07/01 02:17:04;;;;;;;;;;;;;;;21.45;71.68;101085.09;1723619;81;25432;-55
2022/07/01 02:19:30;;;;;;;;;;;;;;;21.43;71.47;101087.51;1732990;80;27876;-54
2022/07/01 02:21:57;;;;;;;;;;;;;;;21.44;71.40;101091.11;1743085;80;25952;-55
2022/07/01 02:24:24;;;;;;;;;;;;;;;21.42;71.32;101089.95;1734805;81;25748;-55
2022/07/01 02:26:50;;;;;;;;;;;;;;;21.43;71.49;101084.77;1723378;81;25803;-55
2022/07/01 02:29:17;;;;;;;;;;;;;;;21.40;71.56;101074.75;1744463;81;25711;-54
2022/07/01 02:31:43;;;;;;;;;;;;;;;21.39;71.77;101074.42;1739886;81;27465;-54
2022/07/01 02:34:10;;;;;;;;;;;;;;;21.38;71.70;101081.80;1723313;82;25769;-55
2022/07/01 02:36:36;;;;;;;;;;;;;;;21.34;71.75;101085.14;1708922;82;25793;-55
2022/07/01 02:39:03;;;;;;;;;;;;;;;21.33;72.04;101082.08;1721463;80;25816;-55
2022/07/01 02:41:29;;;;;;;;;;;;;;;21.32;72.01;101083.12;1740674;81;25836;-55
2022/07/01 02:43:56;;;;;;;;;;;;;;;21.33;72.34;101099.36;1746794;80;27469;-55
2022/07/01 02:46:22;;;;;;;;;;;;;;;21.34;72.53;101101.56;1732078;81;25728;-55
2022/07/01 02:48:50;;;;;;;;;;;;;;;21.35;72.24;101108.73;1722575;81;25919;-55
2022/07/01 02:51:16;;;;;;;;;;;;;;;21.35;72.14;101110.92;1736641;81;26434;-56
2022/07/01 02:53:43;;;;;;;;;;;;;;;21.36;72.32;101113.16;1730476;81;25711;-54
2022/07/01 02:56:09;;;;;;;;;;;;;;;21.33;72.24;101114.91;1738280;80;27493;-54
2022/07/01 02:58:36;;;;;;;;;;;;;;;21.33;72.44;101117.65;1727113;81;25833;-53
2022/07/01 03:01:02;;;;;;;;;;;;;;;21.32;73.11;101111.85;1736041;81;25880;-56
2022/07/01 03:03:29;;;;;;;;;;;;;;;21.21;72.34;101112.72;1710092;81;25912;-56
2022/07/01 03:05:56;;;;;;;;;;;;;;;21.18;72.65;101121.34;1731473;81;25732;-55
2022/07/01 03:08:22;;;;;;;;;;;;;;;21.18;72.70;101123.22;1693866;81;28292;-56
2022/07/01 03:10:48;;;;;;;;;;;;;;;21.17;73.04;101122.89;1738668;81;25927;-55
2022/07/01 03:13:15;;;;;;;;;;;;;;;21.17;72.93;101128.36;1722973;81;25701;-56
2022/07/01 03:15:41;;;;;;;;;;;;;;;21.15;73.13;101132.67;1736946;80;26816;-53
2022/07/01 03:18:08;;;;;;;;;;;;;;;21.14;73.37;101135.61;1738856;80;25879;-55
2022/07/01 03:20:34;;;;;;;;;;;;;;;21.14;73.44;101133.70;1721063;81;27508;-56
2022/07/01 03:23:01;;;;;;;;;;;;;;;21.16;73.60;101133.00;1733349;80;26233;-55
2022/07/01 03:25:29;;;;;;;;;;;;;;;21.12;73.48;101130.31;1733175;81;25800;-53
2022/07/01 03:27:55;;;;;;;;;;;;;;;21.07;73.68;101128.70;1717269;81;25836;-55
2022/07/01 03:30:22;;;;;;;;;;;;;;;21.07;73.88;101126.80;1743318;81;25432;-54
2022/07/01 03:32:48;;;;;;;;;;;;;;;21.11;74.10;101127.28;1714963;81;27475;-54
2022/07/01 03:38:00;;;;;;;;;;;;;;;21.13;74.67;101142.13;1709410;82;25838;-55
2022/07/01 03:40:27;;;;;;;;;;;;;;;21.18;74.57;101143.73;1726168;80;25845;-55
2022/07/01 03:42:53;;;;;;;;;;;;;;;21.27;74.66;101143.91;1730468;80;25991;-56
2022/07/01 03:45:20;;;;;;;;;;;;;;;21.35;74.67;101140.20;1732849;80;27481;-56
2022/07/01 03:47:49;;;;;;;;;;;;;;;21.42;75.15;101143.82;1739249;81;25826;-56
2022/07/01 03:50:17;;;;;;;;;;;;;;;21.46;75.18;101145.13;1724157;81;25775;-55
2022/07/01 03:52:43;;;;;;;;;;;;;;;21.49;74.62;101146.08;1718229;82;25888;-55
2022/07/01 03:55:11;;;;;;;;;;;;;;;21.55;74.52;101149.91;1711169;82;25903;-55
2022/07/01 03:57:37;;;;;;;;;;;;;;;21.60;74.71;101151.58;1717631;81;28343;-55
2022/07/01 04:00:06;;;;;;;;;;;;;;;21.71;74.52;101152.91;1718877;81;25755;-56
2022/07/01 04:02:32;;;;;;;;;;;;;;;21.76;74.23;101155.03;1724259;81;25998;-56
2022/07/01 04:04:59;;;;;;;;;;;;;;;21.77;73.85;101141.67;1722842;81;25816;-56
2022/07/01 04:07:27;;;;;;;;;;;;;;;21.80;74.12;101148.09;1717989;80;25975;-55
2022/07/01 04:09:53;;;;;;;;;;;;;;;21.85;73.91;101152.45;1721838;81;27491;-56
2022/07/01 04:12:21;;;;;;;;;;;;;;;21.84;73.65;101155.70;1726198;82;25882;-55
2022/07/01 04:14:47;;;;;;;;;;;;;;;21.88;73.94;101154.27;1714280;82;25773;-54
2022/07/01 04:17:13;;;;;;;;;;;;;;;21.92;73.51;101161.55;1714550;82;25882;-56
2022/07/01 04:19:40;;;;;;;;;;;;;;;21.99;73.54;101165.70;1725499;80;25998;-56
2022/07/01 04:24:52;;;;;;;;;;;;;;;22.14;73.91;101162.83;1724695;81;25749;-56
2022/07/01 04:27:19;;;;;;;;;;;;;;;22.19;73.60;101165.80;1734657;81;25736;-56
2022/07/01 04:29:45;;;;;;;;;;;;;;;22.26;73.84;101168.03;1725184;80;25885;-56
2022/07/01 04:32:12;;;;;;;;;;;;;;;22.36;73.69;101169.04;1720308;81;25958;-55
2022/07/01 04:34:38;;;;;;;;;;;;;;;22.44;73.44;101173.00;1717649;81;27499;-55
2022/07/01 04:37:05;;;;;;;;;;;;;;;22.56;73.61;101173.75;1734013;81;25706;-56
2022/07/01 04:39:31;;;;;;;;;;;;;;;22.65;73.31;101172.00;1730120;81;25822;-56
2022/07/01 04:42:01;;;;;;;;;;;;;;;22.75;73.37;101169.39;1720744;81;25828;-56
2022/07/01 04:44:35;;;;;;;;;;;;;;;22.82;73.05;101171.62;1716024;81;25726;-55
2022/07/01 04:47:04;;;;;;;;;;;;;;;22.91;73.03;101168.13;1747016;80;27570;-55
2022/07/01 04:49:31;;;;;;;;;;;;;;;22.98;72.61;101168.47;1751901;80;25815;-56
2022/07/01 04:51:59;;;;;;;;;;;;;;;22.95;72.26;101170.25;1734724;80;25777;-55
2022/07/01 04:54:25;;;;;;;;;;;;;;;22.90;72.07;101165.10;1707978;82;26626;-56
2022/07/01 04:56:52;;;;;;;;;;;;;;;22.92;72.24;101160.22;1719450;82;25907;-55
2022/07/01 04:59:19;;;;;;;;;;;;;;;22.95;72.13;101157.08;1723326;82;27852;-56
2022/07/01 05:01:50;;;;;;;;;;;;;;;23.01;72.08;101165.00;1721920;82;25780;-55
2022/07/01 05:04:18;;;;;;;;;;;;;;;23.06;72.05;101172.92;1717321;81;25498;-56
2022/07/01 05:06:46;;;;;;;;;;;;;;;23.05;72.21;101175.34;1711145;81;25791;-55
2022/07/01 05:09:12;;;;;;;;;;;;;;;23.03;71.97;101187.05;1725541;82;26426;-56
2022/07/01 05:11:39;;;;;;;;;;;;;;;23.01;71.58;101180.92;1738668;82;27405;-55
2022/07/01 05:14:06;;;;;;;;;;;;;;;23.04;71.82;101181.05;1719846;82;25853;-56
2022/07/01 05:16:34;;;;;;;;;;;;;;;23.10;71.57;101183.78;1723612;82;25694;-56
2022/07/01 05:21:56;;;;;;;;;;;;;;;23.19;71.25;101189.95;1719741;82;25820;-55
2022/07/01 05:24:29;;;;;;;;;;;;;;;23.23;71.10;101189.83;1712862;82;28418;-53
2022/07/01 05:26:56;;;;;;;;;;;;;;;23.25;70.99;101178.67;1649975;85;25743;-55
2022/07/01 05:29:22;;;;;;;;;;;;;;;23.26;71.26;101186.68;1712443;81;25785;-55
2022/07/01 05:31:49;;;;;;;;;;;;;;;23.34;71.53;101191.12;1722504;82;26587;-56
2022/07/01 05:34:15;;;;;;;;;;;;;;;23.41;71.55;101190.59;1723313;80;25852;-55
2022/07/01 05:36:42;;;;;;;;;;;;;;;23.47;71.42;101183.41;1720770;80;27520;-55
2022/07/01 05:39:09;;;;;;;;;;;;;;;23.54;71.70;101182.87;1718611;82;25722;-54
2022/07/01 05:41:35;;;;;;;;;;;;;;;23.58;72.13;101180.55;1698938;82;25761;-55
2022/07/01 05:44:02;;;;;;;;;;;;;;;23.60;71.44;101175.69;1701235;83;25839;-56
2022/07/01 05:46:28;;;;;;;;;;;;;;;23.63;71.31;101173.87;1711590;82;25763;-56
2022/07/01 05:48:55;;;;;;;;;;;;;;;23.70;71.48;101175.23;1711227;82;28344;-55
2022/07/01 05:51:21;;;;;;;;;;;;;;;23.75;71.38;101180.95;1722249;80;25791;-55
2022/07/01 05:53:48;;;;;;;;;;;;;;;23.81;71.63;101180.59;1714043;82;25910;-55
2022/07/01 05:56:15;;;;;;;;;;;;;;;23.84;71.33;101179.67;1717413;82;25827;-55
2022/07/01 05:58:42;;;;;;;;;;;;;;;23.87;71.12;101179.22;1713367;82;25468;-54
2022/07/01 06:01:08;;;;;;;;;;;;;;;23.91;71.33;101176.88;1718154;82;27533;-55
2022/07/01 06:03:36;;;;;;;;;;;;;;;23.97;71.06;101175.21;1728709;82;25962;-55
2022/07/01 06:06:03;;;;;;;;;;;;;;;24.03;70.93;101175.71;1720413;82;25802;-55
2022/07/01 06:08:30;;;;;;;;;;;;;;;24.08;70.97;101171.80;1724681;82;25814;-54
2022/07/01 06:10:57;;;;;;;;;;;;;;;24.13;70.71;101174.73;1717868;81;26048;-55
2022/07/01 06:13:23;;;;;;;;;;;;;;;24.18;70.71;101169.95;1725245;82;27486;-54
2022/07/01 06:15:50;;;;;;;;;;;;;;;24.25;71.22;101176.27;1716262;82;25769;-55
2022/07/01 06:18:16;;;;;;;;;;;;;;;24.30;70.52;101178.36;1715920;82;25681;-55
2022/07/01 06:20:42;;;;;;;;;;;;;;;24.35;70.49;101176.66;1722969;82;25835;-56
2022/07/01 06:23:09;;;;;;;;;;;;;;;24.41;70.00;101174.11;1723726;81;26108;-56
2022/07/01 06:25:36;;;;;;;;;;;;;;;24.46;69.99;101177.03;1723215;81;27461;-55
2022/07/01 06:28:03;;;;;;;;;;;;;;;24.48;69.72;101172.98;1726510;81;25927;-55
2022/07/01 06:30:30;;;;;;;;;;;;;;;24.51;69.53;101168.98;1709861;82;25817;-55
2022/07/01 06:32:56;;;;;;;;;;;;;;;24.54;69.10;101167.15;1714792;82;25750;-54
2022/07/01 06:35:23;;;;;;;;;;;;;;;24.61;68.25;101161.08;1714110;82;25702;-55
2022/07/01 06:37:50;;;;;;;;;;;;;;;24.66;68.04;101161.78;1711456;82;27478;-55
2022/07/01 06:40:17;;;;;;;;;;;;;;;24.72;68.07;101159.58;1728444;82;25986;-55
2022/07/01 06:42:43;;;;;;;;;;;;;;;24.79;67.80;101159.00;1741088;82;25719;-55
2022/07/01 06:45:11;;;;;;;;;;;;;;;24.86;67.44;101164.47;1727943;81;26932;-55
2022/07/01 06:47:38;;;;;;;;;;;;;;;24.92;66.67;101164.94;1721125;81;25852;-54
2022/07/01 06:50:06;;;;;;;;;;;;;;;24.99;66.35;101164.36;1723785;81;28252;-55
2022/07/01 06:52:32;;;;;;;;;;;;;;;25.09;66.26;101171.27;1724158;81;26177;-54
2022/07/01 06:54:59;;;;;;;;;;;;;;;25.18;65.53;101163.05;1730952;81;25897;-55
2022/07/01 06:57:26;;;;;;;;;;;;;;;25.26;65.01;101164.69;1722428;82;25842;-55
2022/07/01 06:59:52;;;;;;;;;;;;;;;25.37;65.24;101163.94;1721264;82;25753;-55
2022/07/01 07:02:20;;;;;;;;;;;;;;;25.47;64.55;101162.92;1720206;80;27501;-55
2022/07/01 07:04:47;;;;;;;;;;;;;;;25.55;64.39;101159.59;1728928;82;25900;-55
2022/07/01 07:07:14;;;;;;;;;;;;;;;25.66;63.16;101162.95;1719185;81;25810;-55
2022/07/01 07:09:40;;;;;;;;;;;;;;;25.74;61.79;101157.70;1719770;80;25798;-55
2022/07/01 07:12:08;;;;;;;;;;;;;;;25.80;62.50;101160.91;1722921;81;27273;-55
2022/07/01 07:14:35;;;;;;;;;;;;;;;25.87;62.80;101157.54;1729455;81;28218;-55
2022/07/01 07:17:01;;;;;;;;;;;;;;;25.98;61.70;101161.47;1722090;81;25887;-55
2022/07/01 07:19:28;;;;;;;;;;;;;;;26.05;61.88;101156.70;1721967;81;25777;-56
2022/07/01 07:21:56;;;;;;;;;;;;;;;26.16;61.48;101152.91;1717863;81;26606;-55
2022/07/01 07:24:23;;;;;;;;;;;;;;;26.26;59.23;101155.97;1715196;82;25794;-56
2022/07/01 07:26:49;;;;;;;;;;;;;;;26.33;59.52;101151.20;1731448;80;27431;-55
2022/07/01 07:29:16;;;;;;;;;;;;;;;26.41;58.34;101154.16;1721597;81;25821;-55
2022/07/01 07:31:43;;;;;;;;;;;;;;;26.50;58.93;101151.92;1721309;81;25863;-55
2022/07/01 07:34:09;;;;;;;;;;;;;;;26.62;59.42;101163.00;1732665;81;25832;-55
2022/07/01 07:36:36;;;;;;;;;;;;;;;26.72;58.27;101161.91;1719597;80;25405;-56
2022/07/01 07:39:04;;;;;;;;;;;;;;;26.84;55.93;101160.06;1727240;81;27560;-55
2022/07/01 07:41:31;;;;;;;;;;;;;;;26.90;56.64;101155.48;1711479;81;26001;-54
2022/07/01 07:43:58;;;;;;;;;;;;;;;26.99;57.15;101156.00;1718717;81;25908;-56
2022/07/01 07:46:24;;;;;;;;;;;;;;;27.08;56.29;101152.34;1744543;80;26686;-55
2022/07/01 07:48:51;;;;;;;;;;;;;;;27.17;56.64;101156.44;1754361;80;25846;-55
2022/07/01 07:51:18;;;;;;;;;;;;;;;27.23;56.09;101161.03;1752609;80;27411;-56
2022/07/01 07:53:44;;;;;;;;;;;;;;;27.32;55.11;101155.45;1725086;82;25816;-56
2022/07/01 07:56:11;;;;;;;;;;;;;;;27.41;53.87;101149.58;1731886;82;25751;-56
2022/07/01 07:58:41;;;;;;;;;;;;;;;27.46;53.49;101146.95;1727603;82;25845;-55
2022/07/01 08:01:06;;;;;;;;;;;;;;;27.52;53.74;101147.39;1715697;81;25866;-56
2022/07/01 08:03:34;;;;;;;;;;;;;;;27.61;51.93;101147.85;1719122;82;27407;-55
2022/07/01 08:06:01;;;;;;;;;;;;;;;27.70;52.49;101148.34;1733690;82;25772;-55
2022/07/01 08:08:28;;;;;;;;;;;;;;;27.75;53.04;101142.36;1727247;81;25897;-55
2022/07/01 08:10:55;;;;;;;;;;;;;;;27.85;53.15;101135.37;1726452;82;25810;-55
2022/07/01 08:13:21;;;;;;;;;;;;;;;27.96;51.48;101139.52;1737185;82;25677;-55
2022/07/01 08:15:47;;;;;;;;;;;;;;;28.07;51.66;101136.98;1728736;81;27557;-56
2022/07/01 08:18:14;;;;;;;;;;;;;;;28.18;50.51;101136.66;1720330;82;25863;-55
2022/07/01 08:20:40;;;;;;;;;;;;;;;28.31;50.98;101136.36;1729434;81;25647;-56
2022/07/01 08:23:07;;;;;;;;;;;;;;;28.42;50.52;101141.54;1717082;81;25856;-55
2022/07/01 08:25:34;;;;;;;;;;;;;;;28.51;49.54;101137.29;1713599;82;26072;-56
2022/07/01 08:28:00;;;;;;;;;;;;;;;28.64;48.95;101138.08;1719291;82;27476;-56
2022/07/01 08:30:26;;;;;;;;;;;;;;;28.76;49.31;101140.28;1718189;81;25769;-55
2022/07/01 08:32:53;;;;;;;;;;;;;;;28.92;48.38;101135.83;1724051;82;25748;-55
2022/07/01 08:35:19;;;;;;;;;;;;;;;29.02;47.70;101138.78;1726236;82;25957;-55
2022/07/01 08:37:46;;;;;;;;;;;;;;;29.10;45.99;101138.06;1726149;82;25818;-56
2022/07/01 08:40:13;;;;;;;;;;;;;;;29.20;46.79;101127.16;1721464;82;27471;-55
2022/07/01 08:42:39;;;;;;;;;;;;;;;29.32;46.60;101139.55;1722745;82;25447;-56
2022/07/01 08:45:07;;;;;;;;;;;;;;;29.45;47.08;101131.46;1726794;82;25761;-55
2022/07/01 08:47:34;;;;;;;;;;;;;;;29.54;44.84;101135.45;1708487;82;25781;-55
2022/07/01 08:50:01;;;;;;;;;;;;;;;29.59;45.95;101130.52;1724384;82;25671;-56
2022/07/01 08:52:29;;;;;;;;;;;;;;;29.69;45.15;101130.67;1724281;81;27494;-55
2022/07/01 08:54:56;;;;;;;;;;;;;;;29.80;45.49;101132.49;1730012;80;25801;-55
2022/07/01 08:57:23;;;;;;;;;;;;;;;29.97;45.75;101129.70;1730181;81;25784;-55
2022/07/01 09:00:04;;;;;;;;;;;;;;;30.09;44.99;101125.41;1721304;80;26540;-55
2022/07/01 09:02:37;;;;;;;;;;;;;;;30.22;44.71;101126.08;1730681;80;25689;-56
2022/07/01 09:05:05;;;;;;;;;;;;;;;30.42;44.82;101117.99;1695703;82;27556;-56
2022/07/01 09:07:36;;;;;;;;;;;;;;;30.65;43.92;101123.52;1718658;82;25838;-56
2022/07/01 09:10:15;;;;;;;;;;;;;;;30.79;42.46;101120.62;1702785;81;26143;-56
2022/07/01 09:12:41;;;;;;;;;;;;;;;30.91;42.30;101124.03;1714306;82;26457;-55
2022/07/01 09:15:29;;;;;;;;;;;;;;;31.04;42.56;101117.76;1682931;82;25733;-55
2022/07/01 09:17:58;;;;;;;;;;;;;;;31.22;43.01;101120.16;1678681;83;27481;-55
2022/07/01 09:20:31;;;;;;;;;;;;;;;31.49;43.74;101121.14;1715512;80;25776;-56
2022/07/01 09:23:12;;;;;;;;;;;;;;;31.75;41.52;101115.20;1726955;81;25808;-55
2022/07/01 09:25:48;;;;;;;;;;;;;;;31.94;40.59;101117.52;1727711;80;25891;-56
2022/07/01 09:28:20;;;;;;;;;;;;;;;32.07;39.98;101112.81;1732086;80;25751;-55
2022/07/01 09:30:52;;;;;;;;;;;;;;;32.30;40.06;101105.95;1728170;80;27480;-56
2022/07/01 09:33:23;;;;;;;;;;;;;;;32.54;38.18;101108.78;1732394;81;25775;-56
2022/07/01 09:35:52;;;;;;;;;;;;;;;32.80;39.21;101107.44;1731360;81;25794;-56
2022/07/01 09:38:21;;;;;;;;;;;;;;;33.03;38.56;101099.92;1733840;82;25808;-56
2022/07/01 09:40:56;;;;;;;;;;;;;;;33.36;39.43;101100.99;1727544;80;25778;-55
2022/07/01 09:43:26;;;;;;;;;;;;;;;33.72;36.52;101100.88;1727812;81;27545;-56
2022/07/01 09:46:02;;;;;;;;;;;;;;;33.95;37.49;101108.37;1717089;80;25766;-56
2022/07/01 09:48:35;;;;;;;;;;;;;;;34.29;36.91;101103.43;1727973;81;25706;-56
2022/07/01 09:51:04;;;;;;;;;;;;;;;34.52;35.00;101095.50;1736107;80;26050;-56
2022/07/01 09:53:31;;;;;;;;;;;;;;;34.72;34.20;101102.30;1728068;81;25951;-56
2022/07/01 09:55:59;;;;;;;;;;;;;;;34.94;34.96;101094.06;1720046;80;28432;-56
2022/07/01 09:58:26;;;;;;;;;;;;;;;35.29;35.20;101105.16;1680416;82;26192;-56
2022/07/01 10:00:53;;;;;;;;;;;;;;;35.60;34.50;101096.47;1700296;81;26199;-56
2022/07/01 10:03:22;;;;;;;;;;;;;;;35.93;31.83;101090.48;1693761;82;26007;-55
2022/07/01 10:05:52;;;;;;;;;;;;;;;36.22;32.63;101088.68;1693841;82;25507;-56
2022/07/01 10:08:26;;;;;;;;;;;;;;;36.53;32.51;101082.64;1683310;83;27680;-56
2022/07/01 10:11:21;;;;;;;;;;;;;;;36.65;31.29;101081.03;1688510;83;25453;-55
2022/07/01 10:13:48;;;;;;;;;;;;;;;36.19;31.19;101076.12;1685883;83;25822;-57
2022/07/01 10:16:17;;;;;;;;;;;;;;;35.69;32.81;101068.92;1686153;83;25886;-56
2022/07/01 10:18:43;;;;;;;;;;;;;;;35.34;32.67;101064.58;1696023;83;25743;-56
2022/07/01 10:21:13;;;;;;;;;;;;;;;35.37;33.69;101064.81;1687163;83;27483;-56
2022/07/01 10:23:42;;;;;;;;;;;;;;;36.03;32.52;101059.55;1688747;82;25997;-56
2022/07/01 10:26:10;;;;;;;;;;;;;;;36.78;32.41;101054.73;1686768;82;25746;-56
2022/07/01 10:28:43;;;;;;;;;;;;;;;37.70;30.02;101051.32;1685877;83;25853;-56
2022/07/01 10:31:17;;;;;;;;;;;;;;;38.49;30.27;101043.65;1687157;82;25830;-57
2022/07/01 10:33:49;;;;;;;;;;;;;;;39.18;29.38;101046.61;1686562;82;27612;-56
2022/07/01 10:36:28;;;;;;;;;;;;;;;39.84;27.67;101042.19;1695482;82;25507;-56
2022/07/01 10:39:08;;;;;;;;;;;;;;;40.25;27.40;101038.11;1686745;83;25923;-56
2022/07/01 10:41:36;;;;;;;;;;;;;;;40.16;25.27;101031.65;1690574;82;26730;-56
2022/07/01 10:44:06;;;;;;;;;;;;;;;40.09;26.22;101031.27;1681207;83;25865;-56
2022/07/01 10:46:44;;;;;;;;;;;;;;;40.57;25.51;101036.48;1710629;81;27469;-56
2022/07/01 10:49:20;;;;;;;;;;;;;;;40.73;25.39;101024.95;1726650;81;25701;-56
2022/07/01 10:51:52;;;;;;;;;;;;;;;41.23;26.08;101017.80;1719863;82;26198;-56
2022/07/01 10:54:40;;;;;;;;;;;;;;;41.79;25.09;101018.20;1710329;81;25813;-56
2022/07/01 10:57:19;;;;;;;;;;;;;;;42.16;23.87;101015.59;1710165;81;25814;-56
2022/07/01 10:59:53;;;;;;;;;;;;;;;42.65;23.33;101011.30;1730215;80;27424;-57
2022/07/01 11:02:22;;;;;;;;;;;;;;;43.13;21.98;101002.64;1735051;81;25907;-57
2022/07/01 11:04:51;;;;;;;;;;;;;;;43.47;22.35;101003.94;1735002;80;25805;-55
2022/07/01 11:07:19;;;;;;;;;;;;;;;43.79;20.84;101002.73;1727343;81;26576;-56
2022/07/01 11:09:45;;;;;;;;;;;;;;;43.89;21.31;101009.89;1740897;81;25704;-57
2022/07/01 11:12:16;;;;;;;;;;;;;;;43.80;20.00;101002.94;1712177;81;27572;-57
2022/07/01 11:14:43;;;;;;;;;;;;;;;43.54;20.91;101004.16;1711631;81;26556;-55
2022/07/01 11:17:10;;;;;;;;;;;;;;;43.67;21.02;100995.07;1677218;83;25521;-56
2022/07/01 11:19:37;;;;;;;;;;;;;;;44.21;21.21;100996.69;1689655;82;25783;-56
2022/07/01 11:22:05;;;;;;;;;;;;;;;44.76;20.03;100991.05;1687536;82;43243;-56
2022/07/01 11:24:32;;;;;;;;;;;;;;;45.06;19.61;100987.77;1684866;83;27491;-56
2022/07/01 11:27:07;;;;;;;;;;;;;;;45.38;19.50;100980.05;1669674;83;26244;-56
2022/07/01 11:29:34;;;;;;;;;;;;;;;45.31;19.61;100978.47;1680539;83;25824;-56
2022/07/01 11:32:00;;;;;;;;;;;;;;;45.67;17.99;100984.13;1695390;83;26427;-55
2022/07/01 11:34:28;;;;;;;;;;;;;;;45.31;18.32;100976.44;1693390;83;25841;-57
2022/07/01 11:39:43;;;;;;;;;;;;;;;44.89;18.72;100982.71;1690799;83;26441;-56
2022/07/01 11:42:11;;;;;;;;;;;;;;;45.02;19.31;100972.08;1692659;82;26952;-56
2022/07/01 11:44:40;;;;;;;;;;;;;;;45.71;18.66;100966.58;1693425;82;25824;-57
2022/07/01 11:47:10;;;;;;;;;;;;;;;46.15;18.09;100974.80;1739147;80;25887;-56
2022/07/01 11:49:46;;;;;;;;;;;;;;;46.32;17.47;100965.56;1748958;80;27496;-56
2022/07/01 11:52:13;;;;;;;;;;;;;;;46.56;18.31;100968.05;1745011;80;25866;-56
2022/07/01 11:54:41;;;;;;;;;;;;;;;46.84;17.90;100963.27;1748450;80;25788;-56
2022/07/01 11:57:13;;;;;;;;;;;;;;;47.17;16.96;100964.00;1749905;80;25877;-56
2022/07/01 11:59:40;;;;;;;;;;;;;;;47.39;16.97;100963.47;1762282;80;25895;-57
2022/07/01 12:02:10;;;;;;;;;;;;;;;47.54;15.81;100958.83;1748764;80;28271;-56
2022/07/01 12:04:38;;;;;;;;;;;;;;;47.55;15.93;100960.47;1749113;80;25975;-56
2022/07/01 12:07:06;;;;;;;;;;;;;;;47.41;17.01;100956.20;1751030;80;25509;-56
2022/07/01 12:09:32;;;;;;;;;;;;;;;47.50;15.95;100954.48;1756092;80;25803;-56
2022/07/01 12:11:58;;;;;;;;;;;;;;;47.54;16.37;100948.27;1711416;80;25784;-56
2022/07/01 12:14:29;;;;;;;;;;;;;;;47.84;15.89;100939.45;1722174;82;28376;-56
2022/07/01 12:16:58;;;;;;;;;;;;;;;48.09;14.97;100946.27;1719831;82;25876;-56
2022/07/01 12:19:39;;;;;;;;;;;;;;;47.99;16.08;100943.32;1724813;81;25788;-56
2022/07/01 12:22:09;;;;;;;;;;;;;;;47.92;15.39;100942.63;1716341;81;25826;-57
2022/07/01 12:24:36;;;;;;;;;;;;;;;48.30;16.02;100942.03;1721887;81;25869;-56
2022/07/01 12:27:06;;;;;;;;;;;;;;;48.66;14.82;100932.98;1721501;81;28228;-57
2022/07/01 12:29:50;;;;;;;;;;;;;;;48.67;14.40;100929.75;1722087;82;25655;-56
2022/07/01 12:32:23;;;;;;;;;;;;;;;48.67;14.81;100925.47;1723675;81;25739;-56
2022/07/01 12:34:55;;;;;;;;;;;;;;;48.89;14.91;100929.88;1722149;81;25837;-56
2022/07/01 12:37:38;;;;;;;;;;;;;;;49.17;14.21;100929.29;1721457;81;25699;-56
2022/07/01 12:40:08;;;;;;;;;;;;;;;48.28;14.48;100925.91;1720792;81;27628;-56
2022/07/01 12:42:40;;;;;;;;;;;;;;;48.44;15.05;100924.81;1722210;81;25878;-56
2022/07/01 12:45:09;;;;;;;;;;;;;;;48.96;15.01;100914.84;1718520;81;25792;-57
2022/07/01 12:47:39;;;;;;;;;;;;;;;49.50;14.61;100915.16;1698491;83;26012;-56
2022/07/01 12:50:20;;;;;;;;;;;;;;;50.07;13.22;100912.28;1699161;82;25791;-56
2022/07/01 12:53:05;;;;;;;;;;;;;;;50.30;13.61;100908.25;1725452;81;28372;-56